Time;durP1;ratioP1;P1;durP2;ratioP2;P2;SDS_P1;SDS_P2;PMS_P1;PMS_P2;Temp;Humidity;BMP_temperature;BMP_pressure;BME280_temperature;BME280_humidity;BME280_pressure;Samples;Min_cycle;Max_cycle;Signal;HPM_P1;HPM_P2
2022/09/09 00:02:10;;;;;;;2.10;1.92;;;;;;;31.94;33.59;97810.28;5091071;28;20028;-79
2022/09/09 00:04:39;;;;;;;1.73;1.63;;;;;;;32.13;33.58;97810.06;5084961;28;20035;-79
2022/09/09 00:07:30;;;;;;;2.83;1.75;;;;;;;31.77;34.21;97806.41;5090364;28;20050;-80
2022/09/09 00:09:56;;;;;;;;;;;;;;;32.15;32.93;97810.34;5085764;28;20036;-79
2022/09/09 00:12:42;;;;;;;2.60;1.73;;;;;;;32.15;33.07;97804.66;5091718;28;19920;-79
2022/09/09 00:15:16;;;;;;;2.08;1.58;;;;;;;32.14;32.99;97803.09;5086826;28;20039;-79
2022/09/09 00:18:10;;;;;;;2.22;2.03;;;;;;;32.19;32.98;97802.38;5088911;28;20097;-79
2022/09/09 00:20:50;;;;;;;2.92;2.08;;;;;;;32.07;33.08;97822.13;5088727;28;20039;-79
2022/09/09 00:23:30;;;;;;;2.42;1.70;;;;;;;32.32;32.91;97814.19;5087940;28;20487;-79
2022/09/09 00:25:56;;;;;;;1.77;1.20;;;;;;;32.74;31.60;97808.81;5082901;28;20379;-79
2022/09/09 00:28:25;;;;;;;1.80;1.50;;;;;;;32.81;31.55;97801.88;5088037;28;20028;-79
2022/09/09 00:30:51;;;;;;;1.70;1.60;;;;;;;32.68;31.88;97811.56;5085033;28;20113;-80
2022/09/09 00:33:22;;;;;;;1.40;1.30;;;;;;;32.52;32.35;97803.63;5087063;28;20487;-79
2022/09/09 00:35:51;;;;;;;1.23;1.13;;;;;;;32.70;31.81;97811.06;5087361;28;20129;-79
2022/09/09 00:38:41;;;;;;;2.17;2.00;;;;;;;32.49;32.79;97806.63;5084484;28;20510;-79
2022/09/09 00:41:30;;;;;;;2.87;1.60;;;;;;;32.35;32.16;97818.88;5089672;28;20074;-80
2022/09/09 00:44:27;;;;;;;1.75;1.63;;;;;;;32.37;32.50;97825.63;5086925;28;20293;-79
2022/09/09 00:47:30;;;;;;;1.48;1.38;;;;;;;32.06;33.15;97826.25;5078257;28;20121;-79
2022/09/09 00:50:32;;;;;;;1.65;1.55;;;;;;;32.49;32.56;97823.69;5088134;28;20032;-79
2022/09/09 00:53:57;;;;;;;1.33;1.23;;;;;;;32.62;31.72;97824.16;5083892;28;20059;-79
2022/09/09 00:56:31;;;;;;;1.52;1.30;;;;;;;32.93;31.10;97824.25;5079737;28;20044;-79
2022/09/09 00:59:21;;;;;;;2.13;1.60;;;;;;;32.93;31.08;97829.94;5081865;28;20046;-79
2022/09/09 01:01:48;;;;;;;1.38;1.23;;;;;;;33.11;30.53;97826.81;5086140;28;20036;-79
2022/09/09 01:04:24;;;;;;;2.67;1.20;;;;;;;33.41;30.09;97830.19;5088247;28;20031;-79
2022/09/09 01:06:58;;;;;;;1.42;1.20;;;;;;;33.30;30.61;97825.16;5083937;28;20097;-79
2022/09/09 01:09:29;;;;;;;1.40;1.20;;;;;;;32.90;30.31;97830.94;5088393;28;20036;-79
2022/09/09 01:12:01;;;;;;;2.60;1.00;;;;;;;32.97;30.86;97829.72;5080587;28;20543;-79
2022/09/09 01:14:36;;;;;;;1.10;1.00;;;;;;;32.65;31.93;97832.47;5086465;28;20039;-79
2022/09/09 01:17:17;;;;;;;2.83;1.00;;;;;;;32.99;30.81;97830.78;5089061;28;20036;-79
2022/09/09 01:19:43;;;;;;;1.17;0.90;;;;;;;33.16;30.35;97843.16;5089063;28;20032;-79
2022/09/09 01:22:35;;;;;;;0.90;0.90;;;;;;;33.52;30.28;97846.56;5086309;28;20498;-79
2022/09/09 01:25:49;;;;;;;1.27;1.17;;;;;;;33.75;29.51;97848.38;5085670;28;20372;-79
2022/09/09 01:28:26;;;;;;;1.35;0.90;;;;;;;33.76;29.45;97845.00;5068716;28;20388;-78
2022/09/09 01:30:52;;;;;;;0.95;0.90;;;;;;;33.62;29.47;97859.38;5083799;28;20039;-79
2022/09/09 01:33:19;;;;;;;1.27;0.88;;;;;;;33.36;29.82;97862.22;5078200;28;20093;-79
2022/09/09 01:36:07;;;;;;;0.90;0.80;;;;;;;33.37;30.15;97863.78;5087619;28;20032;-79
2022/09/09 01:38:34;;;;;;;0.90;0.90;;;;;;;33.71;29.27;97864.88;5087165;28;20032;-79
2022/09/09 01:41:00;;;;;;;0.63;0.63;;;;;;;33.81;29.38;97863.41;5089278;28;20102;-78
2022/09/09 01:43:28;;;;;;;0.90;0.90;;;;;;;33.92;28.79;97875.69;5083218;28;20039;-79
2022/09/09 01:45:58;;;;;;;0.90;0.80;;;;;;;33.92;28.59;97874.91;5084307;28;20024;-79
2022/09/09 01:48:25;;;;;;;0.70;0.70;;;;;;;33.91;28.97;97876.19;5085078;28;20032;-79
2022/09/09 01:50:52;;;;;;;0.70;0.70;;;;;;;34.01;28.85;97880.41;5081550;28;20522;-79
2022/09/09 01:53:20;;;;;;;0.60;0.60;;;;;;;34.25;27.97;97872.31;5084639;28;20055;-79
2022/09/09 01:56:00;;;;;;;0.52;0.52;;;;;;;34.12;28.19;97871.97;5083876;28;20028;-79
2022/09/09 01:58:56;;;;;;;0.70;0.60;;;;;;;34.03;28.33;97880.69;5085475;28;20039;-78
2022/09/09 02:01:35;;;;;;;1.27;0.90;;;;;;;33.74;28.63;97881.75;5083797;28;20416;-79
2022/09/09 02:04:11;;;;;;;1.10;1.00;;;;;;;33.73;28.46;97876.56;5085784;28;20387;-78
2022/09/09 02:06:39;;;;;;;1.25;0.90;;;;;;;33.90;27.76;97883.97;5087484;28;20028;-78
2022/09/09 02:09:10;;;;;;;0.60;0.60;;;;;;;33.90;27.68;97883.19;5087112;28;20033;-79
2022/09/09 02:11:36;;;;;;;0.70;0.70;;;;;;;33.69;27.99;97888.19;5081704;28;20055;-79
2022/09/09 02:14:12;;;;;;;0.82;0.70;;;;;;;33.72;28.60;97897.78;5082722;28;20384;-78
2022/09/09 02:17:09;;;;;;;0.70;0.70;;;;;;;33.69;28.32;97901.63;5079406;28;20085;-78
2022/09/09 02:20:00;;;;;;;0.50;0.50;;;;;;;33.86;28.09;97905.41;5081173;28;20044;-79
2022/09/09 02:22:29;;;;;;;1.50;0.57;;;;;;;33.80;28.37;97896.81;5083807;28;20040;-78
2022/09/09 02:24:58;;;;;;;1.50;0.65;;;;;;;33.89;27.88;97898.69;5084170;28;20510;-79
2022/09/09 02:27:25;;;;;;;0.60;0.60;;;;;;;33.83;28.05;97900.72;5084941;28;20127;-78
2022/09/09 02:29:53;;;;;;;1.30;0.80;;;;;;;33.97;27.61;97903.44;5081760;28;20101;-79
2022/09/09 02:32:24;;;;;;;1.50;0.70;;;;;;;34.10;27.61;97908.72;5084804;28;20480;-78
2022/09/09 02:35:13;;;;;;;1.20;0.70;;;;;;;34.29;27.55;97915.59;5085508;28;20024;-78
2022/09/09 02:37:41;;;;;;;0.73;0.73;;;;;;;34.39;27.21;97908.41;5085637;28;20028;-78
2022/09/09 02:40:10;;;;;;;0.80;0.80;;;;;;;34.42;27.34;97913.13;5086382;28;20031;-78
2022/09/09 02:42:40;;;;;;;1.60;0.70;;;;;;;34.31;27.34;97915.13;5086103;28;20064;-78
2022/09/09 02:45:08;;;;;;;0.75;0.75;;;;;;;34.28;27.33;97925.47;5088437;28;20030;-78
2022/09/09 02:47:41;;;;;;;0.70;0.70;;;;;;;34.45;27.38;97925.56;5088040;28;20103;-78
2022/09/09 02:50:25;;;;;;;0.80;0.80;;;;;;;34.58;27.31;97925.94;5091707;28;20503;-79
2022/09/09 02:53:15;;;;;;;0.80;0.80;;;;;;;34.66;26.85;97930.63;5083768;28;20028;-78
2022/09/09 02:55:51;;;;;;;0.77;0.77;;;;;;;34.58;27.25;97931.63;5091236;28;20077;-78
2022/09/09 02:58:18;;;;;;;0.80;0.80;;;;;;;34.48;27.26;97942.44;5087904;28;20040;-79
2022/09/09 03:00:47;;;;;;;0.82;0.82;;;;;;;34.34;27.67;97940.53;5091553;28;20024;-79
2022/09/09 03:03:13;;;;;;;1.83;1.13;;;;;;;33.88;28.01;97937.03;5088376;28;20040;-79
2022/09/09 03:05:40;;;;;;;2.15;1.10;;;;;;;33.55;28.44;97936.72;5090708;28;20514;-78
2022/09/09 03:08:06;;;;;;;1.40;1.23;;;;;;;33.63;28.05;97944.28;5091946;28;20024;-79
2022/09/09 03:10:34;;;;;;;2.28;1.48;;;;;;;33.29;28.38;97940.31;5089172;28;20032;-79
2022/09/09 03:13:00;;;;;;;2.15;1.33;;;;;;;33.14;29.08;97953.06;5088128;28;20040;-79
2022/09/09 03:15:30;;;;;;;1.45;1.35;;;;;;;33.02;29.12;97946.47;5087949;28;20062;-78
2022/09/09 03:17:57;;;;;;;4.72;1.20;;;;;;;33.26;28.84;97943.34;5089317;28;20069;-79
2022/09/09 03:20:25;;;;;;;1.30;1.20;;;;;;;33.61;28.34;97943.25;5087242;28;20229;-79
2022/09/09 03:22:55;;;;;;;1.27;1.17;;;;;;;33.88;27.70;97943.50;5088440;28;20039;-79
2022/09/09 03:25:23;;;;;;;1.77;1.10;;;;;;;33.97;27.23;97945.41;5088124;28;20039;-79
2022/09/09 03:27:52;;;;;;;1.30;1.20;;;;;;;34.02;27.43;97936.91;5089435;28;20032;-78
2022/09/09 03:30:19;;;;;;;2.08;1.00;;;;;;;34.04;27.25;97937.19;5084506;28;20502;-79
2022/09/09 03:32:45;;;;;;;1.38;1.27;;;;;;;34.01;26.78;97932.47;5086605;28;20055;-78
2022/09/09 03:35:11;;;;;;;1.52;1.42;;;;;;;33.32;28.03;97939.31;5088467;28;20036;-79
2022/09/09 03:37:38;;;;;;;2.10;1.40;;;;;;;33.40;27.89;97940.41;5087768;28;20044;-79
2022/09/09 03:40:05;;;;;;;1.77;1.30;;;;;;;33.50;28.01;97943.88;5089197;28;20161;-78
2022/09/09 03:42:31;;;;;;;1.60;1.20;;;;;;;33.62;28.17;97944.81;5086626;28;20032;-79
2022/09/09 03:44:59;;;;;;;1.77;1.17;;;;;;;33.83;27.67;97949.94;5088598;28;20111;-79
2022/09/09 03:47:25;;;;;;;2.20;1.27;;;;;;;34.08;27.23;97948.34;5085107;28;20086;-78
2022/09/09 03:49:51;;;;;;;3.22;1.20;;;;;;;34.14;27.01;97949.19;5086020;28;20399;-79
2022/09/09 03:52:18;;;;;;;1.90;1.30;;;;;;;34.11;27.05;97950.19;5085729;28;20625;-79
2022/09/09 03:54:44;;;;;;;1.20;1.10;;;;;;;34.03;27.16;97949.09;5087921;28;20123;-78
2022/09/09 03:57:10;;;;;;;1.98;1.50;;;;;;;33.74;27.34;97944.41;5088576;28;20063;-78
2022/09/09 03:59:36;;;;;;;1.40;1.30;;;;;;;33.65;27.84;97952.34;5087510;28;20476;-78
2022/09/09 04:02:04;;;;;;;1.50;1.38;;;;;;;33.72;27.53;97958.38;5083108;28;20031;-78
2022/09/09 04:04:30;;;;;;;1.10;1.00;;;;;;;33.84;27.38;97956.44;5087237;28;20090;-79
2022/09/09 04:06:56;;;;;;;8.30;1.52;;;;;;;33.58;27.61;97955.66;5083579;28;20531;-79
2022/09/09 04:09:22;;;;;;;1.30;1.20;;;;;;;33.50;27.68;97960.19;5087269;28;20043;-78
2022/09/09 04:11:49;;;;;;;1.30;1.20;;;;;;;33.41;28.02;97953.38;5083481;28;20045;-79
2022/09/09 04:14:15;;;;;;;2.97;2.10;;;;;;;33.31;28.21;97957.66;5088664;28;20032;-78
2022/09/09 04:16:44;;;;;;;1.33;1.23;;;;;;;33.38;28.13;97957.22;5089483;28;20033;-78
2022/09/09 04:19:13;;;;;;;1.40;1.30;;;;;;;33.17;28.17;97960.59;5085377;28;20044;-79
2022/09/09 04:21:40;;;;;;;1.23;1.13;;;;;;;33.06;28.11;97958.41;5084898;28;20063;-79
2022/09/09 04:24:07;;;;;;;2.83;1.20;;;;;;;33.05;28.30;97958.91;5087552;28;20380;-78
2022/09/09 04:26:36;;;;;;;1.27;1.00;;;;;;;33.17;28.33;97954.91;5086899;28;20103;-79
2022/09/09 04:29:07;;;;;;;2.10;1.50;;;;;;;33.37;27.66;97952.03;5085831;28;20084;-78
2022/09/09 04:31:33;;;;;;;1.40;1.30;;;;;;;33.65;27.38;97952.34;5085007;28;20035;-79
2022/09/09 04:34:04;;;;;;;1.63;1.52;;;;;;;33.77;27.61;97959.72;5089120;28;20156;-79
2022/09/09 04:36:32;;;;;;;1.02;0.98;;;;;;;33.83;27.11;97952.00;5084836;28;20088;-78
2022/09/09 04:38:58;;;;;;;1.15;0.90;;;;;;;33.95;26.80;97950.81;5085579;28;20492;-78
2022/09/09 04:41:24;;;;;;;1.20;1.08;;;;;;;33.98;26.88;97952.66;5083905;28;20518;-78
2022/09/09 04:43:52;;;;;;;0.93;0.93;;;;;;;34.01;26.62;97946.72;5084374;28;20392;-79
2022/09/09 04:46:18;;;;;;;0.70;0.70;;;;;;;34.03;26.22;97949.88;5087479;28;20036;-79
2022/09/09 04:48:44;;;;;;;0.70;0.70;;;;;;;33.90;26.74;97951.53;5083616;28;20085;-81
2022/09/09 04:51:14;;;;;;;1.17;1.10;;;;;;;33.97;27.12;97951.88;5082878;28;20381;-79
2022/09/09 04:53:40;;;;;;;1.67;0.50;;;;;;;34.12;26.54;97956.69;5086155;28;20032;-77
2022/09/09 04:56:09;;;;;;;0.77;0.77;;;;;;;34.25;26.28;97954.97;5084230;28;20519;-78
2022/09/09 04:58:37;;;;;;;2.85;0.73;;;;;;;34.44;25.85;97952.50;5073023;28;20029;-77
2022/09/09 05:01:04;;;;;;;1.00;0.90;;;;;;;34.52;26.11;97959.28;5092634;28;20383;-78
2022/09/09 05:03:30;;;;;;;1.17;0.80;;;;;;;34.62;26.13;97963.53;5092056;28;20043;-77
2022/09/09 05:06:06;;;;;;;1.65;1.00;;;;;;;34.76;26.05;97962.59;5094122;28;20028;-77
2022/09/09 05:08:32;;;;;;;0.63;0.60;;;;;;;34.85;25.40;97967.28;5092594;28;20040;-77
2022/09/09 05:10:59;;;;;;;0.60;0.60;;;;;;;34.27;26.13;97971.56;5085187;28;20060;-77
2022/09/09 05:13:28;;;;;;;0.43;0.43;;;;;;;34.09;26.60;97975.56;5091660;28;20516;-77
2022/09/09 05:15:55;;;;;;;1.23;0.77;;;;;;;34.03;26.80;97978.38;5092553;28;20035;-77
2022/09/09 05:18:22;;;;;;;0.63;0.52;;;;;;;34.27;26.64;97978.06;5093905;28;20373;-78
2022/09/09 05:20:49;;;;;;;0.95;0.68;;;;;;;34.45;26.84;97971.94;5091966;28;20039;-78
2022/09/09 05:23:15;;;;;;;0.50;0.50;;;;;;;34.68;26.77;97984.34;5093842;28;20031;-77
2022/09/09 05:25:42;;;;;;;1.77;0.65;;;;;;;34.43;27.11;97983.09;5091645;28;20054;-78
2022/09/09 05:28:08;;;;;;;1.13;0.65;;;;;;;33.85;28.11;97986.47;5075157;28;20029;-78
2022/09/09 05:30:34;;;;;;;1.25;0.70;;;;;;;33.34;29.00;97979.44;5073226;28;20043;-78
2022/09/09 05:33:00;;;;;;;0.70;0.70;;;;;;;33.28;29.19;97987.13;5075260;28;20029;-78
2022/09/09 05:35:27;;;;;;;0.90;0.90;;;;;;;33.37;29.16;97983.34;5092297;28;20032;-78
2022/09/09 05:37:53;;;;;;;2.38;0.85;;;;;;;33.45;28.90;97984.47;5093495;28;20036;-78
2022/09/09 05:40:20;;;;;;;1.42;1.33;;;;;;;33.47;28.99;97981.13;5092932;28;20033;-78
2022/09/09 05:42:46;;;;;;;0.98;0.98;;;;;;;33.56;28.94;97990.31;5093218;28;20377;-78
2022/09/09 05:45:12;;;;;;;0.90;0.90;;;;;;;33.78;28.72;97984.06;5092437;28;20464;-78
2022/09/09 05:47:38;;;;;;;3.00;0.90;;;;;;;34.10;28.17;97997.06;5093753;28;20465;-78
2022/09/09 05:50:05;;;;;;;0.90;0.90;;;;;;;34.07;27.99;97989.56;5093055;28;20055;-78
2022/09/09 05:52:31;;;;;;;2.05;0.80;;;;;;;34.22;28.26;97992.25;5092237;28;20024;-78
2022/09/09 05:54:59;;;;;;;0.93;0.93;;;;;;;34.58;28.08;98006.56;5092224;28;20056;-78
2022/09/09 05:57:25;;;;;;;1.40;1.02;;;;;;;34.62;27.82;97995.69;5092737;28;20028;-77
2022/09/09 05:59:51;;;;;;;0.80;0.80;;;;;;;34.53;28.60;97998.75;5092995;28;20032;-78
2022/09/09 06:02:17;;;;;;;0.98;0.90;;;;;;;33.96;28.45;97995.09;5077869;28;20040;-78
2022/09/09 06:04:43;;;;;;;1.77;1.00;;;;;;;33.84;29.03;98005.63;5085870;28;20064;-78
2022/09/09 06:07:09;;;;;;;1.25;1.00;;;;;;;33.67;29.22;98009.59;5093130;28;20028;-78
2022/09/09 06:09:35;;;;;;;0.95;0.95;;;;;;;34.02;29.11;98010.19;5093280;28;20424;-78
2022/09/09 06:12:01;;;;;;;1.20;1.10;;;;;;;34.33;28.71;98015.91;5092194;28;20033;-78
2022/09/09 06:14:27;;;;;;;1.75;1.08;;;;;;;34.71;28.79;98021.16;5093294;28;20506;-77
2022/09/09 06:16:53;;;;;;;1.38;1.27;;;;;;;34.66;27.44;98004.78;5093408;28;20039;-77
2022/09/09 06:19:20;;;;;;;1.17;0.85;;;;;;;34.40;28.57;98018.31;5080454;28;20442;-78
2022/09/09 06:21:47;;;;;;;1.30;1.08;;;;;;;34.77;28.06;98011.88;5096927;28;20103;-78
2022/09/09 06:24:17;;;;;;;1.20;1.10;;;;;;;34.17;28.58;98013.72;5095675;28;20032;-78
2022/09/09 06:26:43;;;;;;;0.95;0.95;;;;;;;34.60;28.81;98009.69;5085114;28;20035;-78
2022/09/09 06:29:11;;;;;;;1.27;1.15;;;;;;;35.18;28.08;97998.88;5097402;28;20048;-78
2022/09/09 06:31:37;;;;;;;1.40;0.80;;;;;;;35.41;27.63;98001.31;5097397;28;20032;-78
2022/09/09 06:34:08;;;;;;;0.80;0.80;;;;;;;35.27;27.67;97996.59;5097117;28;20043;-78
2022/09/09 06:36:37;;;;;;;0.80;0.80;;;;;;;35.09;28.09;98001.94;5078413;28;20492;-78
2022/09/09 06:39:03;;;;;;;0.73;0.68;;;;;;;34.87;28.10;98013.25;5076659;28;20063;-78
2022/09/09 06:41:30;;;;;;;1.20;1.10;;;;;;;34.67;27.38;98014.94;5082702;28;20036;-78
2022/09/09 06:43:56;;;;;;;0.90;0.90;;;;;;;33.91;29.15;98004.41;5086711;28;20103;-78
2022/09/09 06:46:28;;;;;;;0.73;0.73;;;;;;;33.78;31.45;98007.63;5076633;28;20115;-78
2022/09/09 06:48:55;;;;;;;2.40;1.17;;;;;;;33.51;29.77;98008.09;5076387;28;20038;-77
2022/09/09 06:51:23;;;;;;;1.00;1.00;;;;;;;33.40;29.85;98000.19;5076321;28;20044;-78
2022/09/09 06:53:54;;;;;;;1.27;1.15;;;;;;;33.42;29.84;98000.47;5096182;28;20037;-78
2022/09/09 06:56:27;;;;;;;1.77;1.10;;;;;;;33.51;29.79;97999.56;5095335;28;20480;-78
2022/09/09 06:58:56;;;;;;;1.25;1.15;;;;;;;33.28;30.45;98007.03;5096441;28;20106;-77
2022/09/09 07:01:27;;;;;;;1.10;1.10;;;;;;;32.40;30.92;97997.22;5096537;28;20391;-78
2022/09/09 07:03:55;;;;;;;3.42;1.45;;;;;;;32.00;31.36;97992.97;5096280;28;20030;-77
2022/09/09 07:06:27;;;;;;;4.68;1.10;;;;;;;32.52;31.29;97999.00;5095057;28;20042;-78
2022/09/09 07:08:58;;;;;;;1.08;1.08;;;;;;;33.04;31.09;97995.13;5091321;28;20060;-78
2022/09/09 07:11:27;;;;;;;2.08;1.30;;;;;;;32.45;34.62;98002.22;5075919;28;20036;-78
2022/09/09 07:13:53;;;;;;;1.42;1.33;;;;;;;32.72;32.08;97993.34;5076006;28;20488;-77
2022/09/09 07:16:24;;;;;;;1.33;1.23;;;;;;;33.36;29.56;97993.94;5088723;28;20032;-78
2022/09/09 07:18:50;;;;;;;1.17;1.13;;;;;;;33.82;28.32;97999.63;5096518;28;20028;-78
2022/09/09 07:21:17;;;;;;;1.33;1.23;;;;;;;32.55;29.97;97995.16;5095237;28;20044;-78
2022/09/09 07:23:44;;;;;;;1.08;1.08;;;;;;;33.07;30.95;97996.94;5090900;28;20056;-78
2022/09/09 07:26:19;;;;;;;1.10;1.10;;;;;;;33.18;29.20;97987.78;5085413;28;20033;-78
2022/09/09 07:28:46;;;;;;;1.30;1.20;;;;;;;33.38;29.28;97985.69;5075767;28;20032;-78
2022/09/09 07:31:17;;;;;;;1.17;1.10;;;;;;;33.15;29.37;97991.63;5080108;28;20052;-78
2022/09/09 07:33:44;;;;;;;2.63;1.67;;;;;;;33.27;29.33;97996.16;5083760;28;20086;-78
2022/09/09 07:36:15;;;;;;;1.27;1.08;;;;;;;32.69;31.66;97995.13;5094686;28;20028;-77
2022/09/09 07:38:43;;;;;;;;;;;;;;;32.99;29.74;97995.00;5075997;28;20400;-77
2022/09/09 07:41:12;;;;;;;1.20;1.10;;;;;;;33.42;29.00;97997.63;5084782;28;19916;-78
2022/09/09 07:43:39;;;;;;;1.35;1.08;;;;;;;33.52;28.80;98003.16;5094595;28;20028;-78
2022/09/09 07:46:06;;;;;;;1.30;1.15;;;;;;;33.97;28.12;98006.00;5095552;28;20480;-78
2022/09/09 07:48:32;;;;;;;1.00;1.00;;;;;;;33.55;29.17;98003.00;5091299;28;20059;-78
2022/09/09 07:51:19;;;;;;;1.30;1.10;;;;;;;34.00;28.41;98004.22;5093716;28;20070;-78
2022/09/09 07:53:46;;;;;;;0.93;0.93;;;;;;;34.14;28.28;98002.56;5095540;28;20032;-78
2022/09/09 07:56:18;;;;;;;1.10;0.95;;;;;;;33.79;28.35;98009.22;5094643;28;20483;-78
2022/09/09 07:58:48;;;;;;;2.42;0.90;;;;;;;33.76;28.05;98000.88;5094878;28;20043;-78
2022/09/09 08:01:27;;;;;;;0.80;0.80;;;;;;;34.08;28.60;98009.00;5079831;28;20078;-78
2022/09/09 08:04:05;;;;;;;1.48;1.20;;;;;;;34.27;28.31;98017.97;5075170;28;20040;-78
2022/09/09 08:06:35;;;;;;;0.77;0.70;;;;;;;34.68;28.19;98013.63;5081316;28;20097;-78
2022/09/09 08:09:02;;;;;;;0.77;0.77;;;;;;;33.83;30.11;98018.31;5094896;28;20081;-78
2022/09/09 08:11:29;;;;;;;0.80;0.80;;;;;;;33.51;30.77;98010.16;5093995;28;20115;-78
2022/09/09 08:13:55;;;;;;;1.77;1.02;;;;;;;33.42;29.84;98019.66;5094829;28;20608;-78
2022/09/09 08:16:25;;;;;;;2.25;0.70;;;;;;;34.22;30.14;98015.06;5095204;28;20031;-78
2022/09/09 08:18:52;;;;;;;0.63;0.63;;;;;;;34.39;28.19;98024.53;5094432;28;20069;-78
2022/09/09 08:21:21;;;;;;;0.88;0.70;;;;;;;34.85;26.16;98027.22;5094861;28;20043;-78
2022/09/09 08:23:49;;;;;;;0.80;0.80;;;;;;;34.62;27.17;98032.78;5086543;28;20067;-78
2022/09/09 08:26:23;;;;;;;0.57;0.50;;;;;;;35.69;26.40;98024.28;5093441;28;20121;-78
2022/09/09 08:28:53;;;;;;;1.27;0.60;;;;;;;36.14;25.25;98024.38;5094610;28;20051;-78
2022/09/09 08:31:29;;;;;;;0.82;0.82;;;;;;;34.73;32.13;98032.06;5094926;28;20039;-78
2022/09/09 08:33:59;;;;;;;0.80;0.60;;;;;;;34.79;27.79;98018.63;5090316;28;20059;-78
2022/09/09 08:36:29;;;;;;;1.00;0.60;;;;;;;35.01;25.75;98026.56;5074076;28;20029;-78
2022/09/09 08:38:57;;;;;;;0.60;0.60;;;;;;;35.31;25.75;98019.19;5073990;28;20029;-79
2022/09/09 08:41:53;;;;;;;0.60;0.60;;;;;;;35.38;26.35;98022.31;5087866;28;20059;-79
2022/09/09 08:44:33;;;;;;;1.20;0.70;;;;;;;35.31;25.62;98028.53;5093415;28;20047;-78
2022/09/09 08:47:26;;;;;;;0.60;0.60;;;;;;;35.79;25.02;98022.75;5094361;28;20476;-78
2022/09/09 08:50:21;;;;;;;0.82;0.50;;;;;;;35.67;24.14;98020.38;5094106;28;20093;-78
2022/09/09 08:53:05;;;;;;;0.45;0.45;;;;;;;35.64;25.16;98027.13;5093781;28;20032;-79
2022/09/09 08:55:58;;;;;;;0.40;0.40;;;;;;;36.31;25.55;98030.91;5094510;28;20107;-78
2022/09/09 08:58:29;;;;;;;0.55;0.55;;;;;;;34.97;29.63;98031.69;5093785;28;20036;-79
2022/09/09 09:01:30;;;;;;;2.13;1.05;;;;;;;34.85;28.01;98038.63;5094092;28;20160;-78
2022/09/09 09:04:14;;;;;;;0.50;0.50;;;;;;;35.93;25.47;98036.03;5092765;28;20404;-78
2022/09/09 09:06:52;;;;;;;0.43;0.40;;;;;;;35.91;28.26;98034.97;5094035;28;20055;-79
2022/09/09 09:09:24;;;;;;;0.65;0.50;;;;;;;36.58;24.10;98033.78;5078097;28;20039;-79
2022/09/09 09:11:54;;;;;;;0.50;0.50;;;;;;;36.46;24.00;98029.34;5092124;28;20441;-79
2022/09/09 09:14:25;;;;;;;1.02;0.50;;;;;;;36.24;25.79;98029.34;5092379;28;20446;-78
2022/09/09 09:17:03;;;;;;;;;;;;;;;35.64;23.79;98027.13;5094139;28;20554;-79
2022/09/09 09:19:32;;;;;;;0.50;0.50;;;;;;;35.05;32.08;98032.81;5093590;28;19966;-79
2022/09/09 09:22:22;;;;;;;0.70;0.40;;;;;;;35.13;28.51;98033.88;5090659;28;20074;-77
2022/09/09 09:24:55;;;;;;;0.60;0.60;;;;;;;35.66;26.28;98033.88;5089675;28;20033;-79
2022/09/09 09:27:44;;;;;;;2.65;0.60;;;;;;;36.27;24.95;98027.53;5073507;28;20554;-79
2022/09/09 09:30:20;;;;;;;0.68;0.68;;;;;;;36.79;25.01;98028.53;5073428;28;20025;-80
2022/09/09 09:33:00;;;;;;;0.50;0.50;;;;;;;36.98;24.36;98032.44;5090225;28;20032;-79
2022/09/09 09:35:26;;;;;;;0.40;0.40;;;;;;;37.50;23.33;98029.66;5093405;28;20024;-77
2022/09/09 09:37:53;;;;;;;0.45;0.45;;;;;;;37.42;22.46;98028.66;5093328;28;20057;-77
2022/09/09 09:40:21;;;;;;;0.60;0.60;;;;;;;36.73;25.51;98027.78;5091509;28;20031;-79
2022/09/09 09:43:00;;;;;;;0.57;0.47;;;;;;;36.19;25.20;98032.19;5081503;28;20086;-80
2022/09/09 09:45:34;;;;;;;0.40;0.40;;;;;;;36.08;24.41;98017.88;5073462;28;20029;-79
2022/09/09 09:48:04;;;;;;;0.40;0.40;;;;;;;36.45;23.91;98015.56;5075140;28;20499;-77
2022/09/09 09:50:32;;;;;;;0.38;0.38;;;;;;;36.87;23.35;98020.97;5092969;28;20044;-79
2022/09/09 09:53:03;;;;;;;0.57;0.57;;;;;;;37.46;22.67;98019.78;5093140;28;20100;-77
2022/09/09 09:55:33;;;;;;;0.45;0.45;;;;;;;37.62;21.82;98016.06;5092457;28;20036;-78
2022/09/09 09:58:13;;;;;;;0.50;0.50;;;;;;;37.34;22.98;98016.19;5093651;28;20032;-79
2022/09/09 10:00:52;;;;;;;0.38;0.38;;;;;;;37.62;23.38;98025.44;5074564;28;20040;-78
2022/09/09 10:03:30;;;;;;;2.03;0.50;;;;;;;37.35;22.47;98009.13;5073261;28;20036;-78
2022/09/09 10:05:57;;;;;;;0.50;0.50;;;;;;;37.59;23.06;98006.44;5082549;28;20036;-77
2022/09/09 10:08:25;;;;;;;0.38;0.38;;;;;;;37.37;23.58;98006.53;5093111;28;20038;-78
2022/09/09 10:11:04;;;;;;;0.40;0.40;;;;;;;36.82;22.99;98000.94;5092220;28;20040;-77
2022/09/09 10:13:49;;;;;;;0.47;0.47;;;;;;;36.26;22.67;98005.94;5093047;28;20574;-78
2022/09/09 10:16:45;;;;;;;0.80;0.40;;;;;;;36.87;24.49;98014.47;5085617;28;20029;-78
2022/09/09 10:19:20;;;;;;;0.50;0.50;;;;;;;37.62;22.73;98010.34;5085484;28;20032;-78
2022/09/09 10:22:06;;;;;;;0.50;0.50;;;;;;;37.60;25.66;98015.81;5091620;28;20436;-77
2022/09/09 10:25:05;;;;;;;0.40;0.40;;;;;;;35.76;23.20;98017.25;5091273;28;20041;-78
2022/09/09 10:27:45;;;;;;;1.27;0.57;;;;;;;35.77;27.84;98019.63;5092398;28;20177;-78
2022/09/09 10:30:22;;;;;;;0.40;0.40;;;;;;;34.54;27.47;98028.81;5093169;28;20123;-77
2022/09/09 10:33:10;;;;;;;2.50;0.60;;;;;;;34.80;29.96;98010.84;5088488;28;20028;-77
2022/09/09 10:35:48;;;;;;;0.50;0.50;;;;;;;35.86;25.63;98021.44;5072722;28;20503;-77
2022/09/09 10:38:40;;;;;;;0.68;0.50;;;;;;;36.68;24.00;98019.97;5072601;28;20040;-78
2022/09/09 10:41:42;;;;;;;0.40;0.40;;;;;;;37.38;22.44;98026.06;5092249;28;20081;-78
2022/09/09 10:44:20;;;;;;;0.50;0.50;;;;;;;37.73;23.51;98024.59;5092806;28;20046;-78
2022/09/09 10:47:10;;;;;;;0.32;0.30;;;;;;;37.35;22.33;98009.91;5092760;28;20107;-78
2022/09/09 10:50:06;;;;;;;0.40;0.40;;;;;;;37.40;23.09;98022.69;5088827;28;20036;-78
2022/09/09 10:52:42;;;;;;;0.20;0.20;;;;;;;37.93;21.27;98021.38;5072643;28;20072;-78
2022/09/09 10:55:22;;;;;;;0.50;0.50;;;;;;;38.17;23.03;98027.19;5086362;28;20034;-78
2022/09/09 10:57:53;;;;;;;0.50;0.40;;;;;;;37.54;21.55;98030.16;5092615;28;20127;-77
2022/09/09 11:00:49;;;;;;;0.20;0.20;;;;;;;37.35;21.86;98021.38;5092748;28;20024;-78
2022/09/09 11:03:29;;;;;;;0.30;0.30;;;;;;;37.55;21.86;98022.34;5091430;28;20045;-78
2022/09/09 11:06:05;;;;;;;0.50;0.50;;;;;;;37.13;24.42;98018.56;5094368;28;20035;-77
2022/09/09 11:08:35;;;;;;;0.45;0.30;;;;;;;37.35;22.42;98018.50;5081435;28;20024;-77
2022/09/09 11:11:22;;;;;;;0.50;0.50;;;;;;;37.78;24.06;98015.97;5096106;28;20115;-78
2022/09/09 11:14:01;;;;;;;1.35;0.30;;;;;;;37.75;23.94;98019.88;5096239;28;20066;-77
2022/09/09 11:16:44;;;;;;;0.53;0.50;;;;;;;35.26;24.97;98020.75;5096095;28;20024;-77
2022/09/09 11:19:36;;;;;;;1.38;0.45;;;;;;;34.31;25.31;98020.59;5082144;28;20460;-78
2022/09/09 11:22:23;;;;;;;0.40;0.40;;;;;;;35.71;26.76;98018.81;5087763;28;20451;-78
2022/09/09 11:25:01;;;;;;;0.47;0.47;;;;;;;35.20;26.60;98008.50;5093860;28;20495;-77
2022/09/09 11:27:36;;;;;;;0.40;0.32;;;;;;;36.82;23.61;98009.53;5095971;28;20451;-77
2022/09/09 11:30:08;;;;;;;0.85;0.40;;;;;;;37.17;21.74;98012.59;5095738;28;20103;-77
2022/09/09 11:32:49;;;;;;;0.70;0.40;;;;;;;37.67;22.89;98018.13;5095819;28;20110;-77
2022/09/09 11:35:43;;;;;;;0.38;0.38;;;;;;;38.76;21.57;98012.13;5095918;28;20020;-77
2022/09/09 11:38:16;;;;;;;0.80;0.47;;;;;;;36.53;25.11;98016.59;5095119;28;20090;-77
2022/09/09 11:40:43;;;;;;;0.85;0.50;;;;;;;36.55;24.73;98022.59;5092992;28;20028;-77
2022/09/09 11:43:39;;;;;;;0.82;0.50;;;;;;;35.96;27.88;98015.00;5075756;28;20490;-77
2022/09/09 11:46:07;;;;;;;0.57;0.50;;;;;;;37.50;21.41;98012.47;5075096;28;20045;-77
2022/09/09 11:48:36;;;;;;;0.47;0.47;;;;;;;38.12;21.53;98007.94;5090439;28;20036;-78
2022/09/09 11:51:09;;;;;;;0.55;0.40;;;;;;;36.52;25.29;98012.19;5093995;28;20044;-77
2022/09/09 11:54:02;;;;;;;0.50;0.50;;;;;;;35.76;22.25;98009.47;5091765;28;20507;-78
2022/09/09 11:56:45;;;;;;;0.50;0.50;;;;;;;37.10;24.95;98011.06;5087607;28;20525;-79
2022/09/09 11:59:37;;;;;;;0.60;0.60;;;;;;;37.08;19.94;98010.03;5085708;28;20028;-79
2022/09/09 12:02:24;;;;;;;0.40;0.40;;;;;;;37.42;23.29;98011.47;5082349;28;20174;-78
2022/09/09 12:05:00;;;;;;;0.50;0.32;;;;;;;37.61;25.32;98005.91;5089596;28;20107;-78